Arroyo Seco, New Mexico
Current Conditions -  °F | °C
As of 1:55 AM on Saturday 22 Nov 2014 (Local Time) from KSKX Reporting Station
Clear Clear  
Wind Chill: -11°   Ceiling: Unl
Heat Index: -6°   Visibility: 10mi
Dew Point: -9°   Wind: 7mph
Humidity: 80%   Direction: 360°N
Pressure: 30.12"   Gusts: NA
Location:  36.52°N, 105.57°W
Report Text: KSKX 220855Z AUTO 36006KT 10SM CLR M06/M09 A3012 RMK AO1 57003
Loading
Personal Weather Stations






























Interactive Weather Map New forecast layout! Learn more

10-Day Weather Forecast

Advertisements
Track Severe Weather on mobile